Time;durP1;ratioP1;P1;durP2;ratioP2;P2;SDS_P1;SDS_P2;PMS_P1;PMS_P2;Temp;Humidity;BMP_temperature;BMP_pressure;BME280_temperature;BME280_humidity;BME280_pressure;Samples;Min_cycle;Max_cycle;Signal;HPM_P1;HPM_P2
2021/10/27 00:00:06;;;;;;;23.00;15.58;;;;;;;8.33;76.43;101288.02;1763827;81;21008;-75
2021/10/27 00:02:34;;;;;;;28.05;15.80;;;;;;;8.31;76.47;101287.30;1739751;82;21058;-76
2021/10/27 00:05:01;;;;;;;26.30;15.48;;;;;;;8.28;76.52;101283.10;1739883;82;21134;-75
2021/10/27 00:07:27;;;;;;;20.62;14.15;;;;;;;8.25;76.57;101282.49;1763637;81;21035;-76
2021/10/27 00:09:53;;;;;;;23.22;14.90;;;;;;;8.21;76.61;101279.27;1763869;80;21330;-76
2021/10/27 00:12:19;;;;;;;22.95;14.68;;;;;;;8.18;76.64;101279.53;1763737;81;21614;-76
2021/10/27 00:14:45;;;;;;;22.73;15.32;;;;;;;8.17;76.69;101275.66;1763693;81;21027;-75
2021/10/27 00:17:11;;;;;;;25.82;15.05;;;;;;;8.14;76.74;101278.11;1763818;81;21079;-76
2021/10/27 00:19:37;;;;;;;23.83;14.95;;;;;;;8.11;76.77;101281.03;1763335;81;21011;-75
2021/10/27 00:22:03;;;;;;;19.07;13.98;;;;;;;8.08;76.82;101282.63;1762211;81;21018;-75
2021/10/27 00:24:29;;;;;;;22.50;15.20;;;;;;;8.06;76.86;101283.23;1762108;81;21014;-76
2021/10/27 00:26:55;;;;;;;22.25;15.32;;;;;;;8.03;76.89;101283.50;1762728;80;21020;-75
2021/10/27 00:29:21;;;;;;;23.92;15.10;;;;;;;8.00;76.95;101287.75;1763248;81;21156;-76
2021/10/27 00:31:47;;;;;;;32.28;15.75;;;;;;;7.95;76.97;101279.36;1763395;81;21490;-76
2021/10/27 00:34:13;;;;;;;23.90;14.60;;;;;;;7.93;77.01;101287.92;1763867;81;21442;-75
2021/10/27 00:36:39;;;;;;;19.70;13.78;;;;;;;7.91;77.08;101285.90;1763120;81;21021;-75
2021/10/27 00:39:06;;;;;;;22.73;14.90;;;;;;;7.90;77.10;101282.88;1763602;81;20965;-75
2021/10/27 00:41:32;;;;;;;23.12;13.83;;;;;;;7.89;77.15;101286.02;1763041;81;21139;-75
2021/10/27 00:43:58;;;;;;;22.35;13.75;;;;;;;7.88;77.18;101287.49;1763570;81;21534;-75
2021/10/27 00:46:25;;;;;;;24.18;13.88;;;;;;;7.87;77.22;101287.13;1763472;81;20866;-75
2021/10/27 00:48:51;;;;;;;27.50;14.58;;;;;;;7.88;77.26;101290.15;1763592;81;21946;-75
2021/10/27 00:51:18;;;;;;;23.00;15.78;;;;;;;7.87;77.29;101298.59;1763515;81;21458;-75
2021/10/27 00:53:46;;;;;;;26.85;15.98;;;;;;;7.84;77.34;101292.70;1763445;81;21214;-76
2021/10/27 00:56:12;;;;;;;23.50;14.95;;;;;;;7.82;77.37;101294.15;1736354;81;22131;-76
2021/10/27 00:58:38;;;;;;;20.35;13.25;;;;;;;7.82;77.41;101295.95;1762575;81;21458;-75
2021/10/27 01:01:04;;;;;;;25.80;15.05;;;;;;;7.82;77.45;101290.64;1760730;81;20970;-75
2021/10/27 01:03:31;;;;;;;23.60;14.85;;;;;;;7.82;77.48;101289.32;1760764;81;20985;-75
2021/10/27 01:05:57;;;;;;;24.18;15.58;;;;;;;7.81;77.52;101290.31;1760660;81;21083;-75
2021/10/27 01:08:23;;;;;;;22.75;14.25;;;;;;;7.80;77.55;101291.28;1760563;81;21053;-75
2021/10/27 01:10:49;;;;;;;21.80;14.18;;;;;;;7.77;77.57;101290.22;1760913;81;21285;-75
2021/10/27 01:13:15;;;;;;;21.45;14.00;;;;;;;7.75;77.62;101286.83;1760779;81;21493;-75
2021/10/27 01:15:41;;;;;;;19.45;13.60;;;;;;;7.74;77.64;101282.52;1760367;81;21033;-75
2021/10/27 01:18:08;;;;;;;23.83;14.28;;;;;;;7.75;77.68;101285.50;1760836;81;21113;-75
2021/10/27 01:20:35;;;;;;;21.85;13.95;;;;;;;7.74;77.70;101286.50;1760638;81;20986;-75
2021/10/27 01:23:03;;;;;;;22.82;13.53;;;;;;;7.74;77.74;101282.52;1760703;81;21033;-75
2021/10/27 01:25:29;;;;;;;21.45;13.43;;;;;;;7.75;77.79;101281.04;1760747;81;20993;-75
2021/10/27 01:27:56;;;;;;;20.23;12.33;;;;;;;7.75;77.81;101288.16;1760259;81;21013;-75
2021/10/27 01:30:23;;;;;;;18.87;14.20;;;;;;;7.75;77.84;101281.52;1760839;81;21151;-75
2021/10/27 01:32:49;;;;;;;20.57;13.05;;;;;;;7.77;77.89;101284.91;1760720;81;20966;-75
2021/10/27 01:35:16;;;;;;;18.62;12.58;;;;;;;7.75;77.92;101281.04;1760867;81;21030;-76
2021/10/27 01:37:43;;;;;;;22.25;13.38;;;;;;;7.75;77.93;101280.19;1760739;81;20994;-76
2021/10/27 01:40:13;;;;;;;25.48;13.13;;;;;;;7.75;77.97;101273.55;1760573;81;21025;-75
2021/10/27 01:42:39;;;;;;;19.82;13.75;;;;;;;7.79;78.03;101267.02;1760698;81;21198;-75
2021/10/27 01:45:06;;;;;;;20.95;12.43;;;;;;;7.83;78.06;101273.75;1760874;81;21493;-75
2021/10/27 01:47:33;;;;;;;21.97;13.78;;;;;;;7.89;78.05;101278.53;1760498;81;21033;-75
2021/10/27 01:50:00;;;;;;;18.90;12.73;;;;;;;7.95;78.09;101272.72;1760328;81;21514;-75
2021/10/27 01:52:26;;;;;;;18.20;12.35;;;;;;;8.00;78.10;101279.30;1761139;81;21101;-75
2021/10/27 01:54:52;;;;;;;19.52;11.80;;;;;;;8.06;78.13;101280.58;1760348;81;21110;-75
2021/10/27 01:57:18;;;;;;;18.57;12.53;;;;;;;8.12;78.15;101284.06;1760577;81;21009;-75
2021/10/27 01:59:45;;;;;;;19.45;11.45;;;;;;;8.17;78.18;101283.16;1755570;81;21030;-75
2021/10/27 02:02:11;;;;;;;18.60;12.63;;;;;;;8.21;78.19;101279.27;1753198;81;22137;-75
2021/10/27 02:04:37;;;;;;;19.65;12.00;;;;;;;8.26;78.21;101277.06;1753271;81;21010;-75
2021/10/27 02:07:03;;;;;;;19.77;11.65;;;;;;;8.29;78.24;101271.51;1752996;81;21332;-75
2021/10/27 02:09:29;;;;;;;18.23;11.63;;;;;;;8.32;78.24;101273.89;1753270;81;21267;-75
2021/10/27 02:11:55;;;;;;;15.38;10.85;;;;;;;8.34;78.25;101266.61;1753024;81;20994;-75
2021/10/27 02:14:21;;;;;;;14.70;10.90;;;;;;;8.35;78.27;101268.30;1753406;81;21065;-75
2021/10/27 02:16:48;;;;;;;17.30;10.20;;;;;;;8.35;78.26;101276.77;1753102;81;21459;-75
2021/10/27 02:19:14;;;;;;;18.25;10.38;;;;;;;8.33;78.29;101276.91;1753500;81;21141;-75
2021/10/27 02:21:40;;;;;;;14.98;9.73;;;;;;;8.32;78.31;101283.67;1753378;81;20998;-75
2021/10/27 02:24:06;;;;;;;19.90;10.50;;;;;;;8.29;78.30;101282.14;1753329;81;20985;-75
2021/10/27 02:26:32;;;;;;;18.00;10.78;;;;;;;8.30;78.33;101277.16;1753295;81;20978;-75
2021/10/27 02:28:58;;;;;;;16.70;10.28;;;;;;;8.29;78.30;101275.98;1753350;81;21010;-75
2021/10/27 02:31:24;;;;;;;15.90;10.63;;;;;;;8.27;78.33;101273.41;1753539;81;21121;-75
2021/10/27 02:33:51;;;;;;;12.73;9.33;;;;;;;8.27;78.33;101272.08;1753135;81;21672;-76
2021/10/27 02:36:17;;;;;;;12.78;9.78;;;;;;;8.24;78.32;101278.99;1753193;81;21030;-75
2021/10/27 02:38:43;;;;;;;17.85;10.60;;;;;;;8.20;78.34;101280.74;1753380;81;20962;-75
2021/10/27 02:41:11;;;;;;;17.90;10.90;;;;;;;8.18;78.34;101273.38;1753234;81;20995;-75
2021/10/27 02:43:37;;;;;;;14.05;10.65;;;;;;;8.14;78.37;101279.92;1753384;81;21980;-75
2021/10/27 02:46:03;;;;;;;21.25;10.70;;;;;;;8.13;78.36;101281.73;1753202;81;21306;-75
2021/10/27 02:48:29;;;;;;;18.17;10.25;;;;;;;8.11;78.37;101275.72;1753058;81;21545;-75
2021/10/27 02:50:55;;;;;;;17.52;11.20;;;;;;;8.08;78.37;101269.35;1753111;81;20970;-75
2021/10/27 02:53:21;;;;;;;17.37;10.72;;;;;;;8.07;78.37;101271.64;1753383;81;21064;-75
2021/10/27 02:55:47;;;;;;;17.42;10.85;;;;;;;8.05;78.38;101269.62;1753160;81;21090;-75
2021/10/27 02:58:13;;;;;;;16.73;10.38;;;;;;;8.03;78.39;101270.22;1753081;81;21093;-75
2021/10/27 03:00:39;;;;;;;17.12;10.48;;;;;;;8.02;78.42;101271.22;1753085;81;21051;-75
2021/10/27 03:03:05;;;;;;;21.25;10.48;;;;;;;8.01;78.43;101264.21;1753288;81;21016;-75
2021/10/27 03:05:31;;;;;;;18.55;10.70;;;;;;;8.01;78.44;101270.86;1753343;81;21680;-75
2021/10/27 03:07:57;;;;;;;20.48;10.63;;;;;;;8.01;78.45;101265.55;1753201;81;22011;-75
2021/10/27 03:10:24;;;;;;;15.48;9.70;;;;;;;7.99;78.44;101264.81;1753060;81;21021;-76
2021/10/27 03:12:50;;;;;;;15.88;9.80;;;;;;;7.96;78.46;101263.27;1753299;81;21040;-75
2021/10/27 03:15:16;;;;;;;17.32;10.60;;;;;;;7.92;78.48;101264.98;1753390;81;21512;-76
2021/10/27 03:17:42;;;;;;;12.85;9.68;;;;;;;7.90;78.49;101269.60;1753425;81;21043;-76
2021/10/27 03:20:09;;;;;;;16.37;10.18;;;;;;;7.87;78.51;101272.52;1753188;81;21104;-75
2021/10/27 03:22:35;;;;;;;14.60;9.95;;;;;;;7.83;78.55;101279.06;1753282;81;21558;-76
2021/10/27 03:25:01;;;;;;;16.52;9.65;;;;;;;7.78;78.56;101283.91;1752629;81;20925;-75
2021/10/27 03:27:27;;;;;;;16.80;10.40;;;;;;;7.76;78.57;101277.91;1753156;81;21071;-75
2021/10/27 03:29:53;;;;;;;16.27;9.73;;;;;;;7.76;78.60;101280.55;1753158;81;21071;-75
2021/10/27 03:32:19;;;;;;;19.75;9.98;;;;;;;7.76;78.63;101281.88;1753456;81;21125;-75
2021/10/27 03:34:45;;;;;;;16.93;10.60;;;;;;;7.76;78.64;101285.86;1753146;81;21024;-75
2021/10/27 03:37:14;;;;;;;19.62;9.85;;;;;;;7.76;78.67;101280.55;1753045;81;21673;-76
2021/10/27 03:39:39;;;;;;;18.35;10.50;;;;;;;7.78;78.66;101281.25;1753368;81;21001;-75
2021/10/27 03:42:06;;;;;;;13.95;9.30;;;;;;;7.79;78.70;101283.80;1752938;81;21504;-75
2021/10/27 03:44:32;;;;;;;15.88;10.08;;;;;;;7.82;78.74;101288.84;1753486;81;21179;-75
2021/10/27 03:46:58;;;;;;;15.75;10.53;;;;;;;7.84;78.72;101296.69;1752926;81;21016;-76
2021/10/27 03:49:24;;;;;;;19.32;10.53;;;;;;;7.84;78.75;101294.03;1753361;81;21523;-75
2021/10/27 03:51:50;;;;;;;16.82;10.90;;;;;;;7.82;78.78;101289.32;1753066;81;21004;-75
2021/10/27 03:54:16;;;;;;;16.30;11.12;;;;;;;7.82;78.78;101282.68;1727709;81;21020;-75
2021/10/27 03:56:42;;;;;;;18.82;11.08;;;;;;;7.82;78.80;101281.35;1753208;81;22224;-75
2021/10/27 03:59:08;;;;;;;15.03;10.25;;;;;;;7.81;78.83;101287.14;1753159;81;20920;-75
2021/10/27 04:01:34;;;;;;;14.93;9.70;;;;;;;7.78;78.82;101288.73;1753177;81;21070;-75
2021/10/27 04:04:00;;;;;;;16.02;10.88;;;;;;;7.75;78.85;101285.50;1753131;81;21028;-75
2021/10/27 04:06:26;;;;;;;16.70;10.10;;;;;;;7.74;78.87;101289.15;1753212;81;21051;-75
2021/10/27 04:08:52;;;;;;;18.23;10.45;;;;;;;7.74;78.88;101291.81;1753299;81;21151;-75
2021/10/27 04:11:18;;;;;;;16.45;10.15;;;;;;;7.71;78.90;101294.69;1752935;81;21614;-75
2021/10/27 04:13:44;;;;;;;19.60;11.83;;;;;;;7.68;78.94;101293.14;1752971;81;21079;-75
2021/10/27 04:16:10;;;;;;;24.55;11.93;;;;;;;7.67;78.94;101292.78;1753243;81;21056;-75
2021/10/27 04:18:36;;;;;;;20.80;11.88;;;;;;;7.65;78.94;101283.27;1753272;81;21031;-75
2021/10/27 04:21:02;;;;;;;19.95;10.72;;;;;;;7.64;78.98;101285.56;1753146;81;21167;-75
2021/10/27 04:23:28;;;;;;;16.70;10.43;;;;;;;7.61;79.00;101289.80;1753323;81;21020;-75
2021/10/27 04:25:55;;;;;;;19.25;11.68;;;;;;;7.58;79.01;101291.39;1752902;81;21080;-76
2021/10/27 04:28:21;;;;;;;14.80;10.30;;;;;;;7.58;79.05;101291.39;1753257;81;21084;-75
2021/10/27 04:30:47;;;;;;;14.30;10.58;;;;;;;7.57;79.05;101296.34;1753296;81;21501;-75
2021/10/27 04:33:21;;;;;;;15.83;10.15;;;;;;;7.54;79.07;101289.00;1753039;81;21128;-76
2021/10/27 04:35:47;;;;;;;15.83;10.63;;;;;;;7.58;79.11;101286.09;1753145;81;20996;-76
2021/10/27 04:38:14;;;;;;;19.07;10.58;;;;;;;7.57;79.12;101283.06;1753148;81;21015;-75
2021/10/27 04:40:42;;;;;;;16.85;10.78;;;;;;;7.57;79.13;101283.06;1753270;81;21567;-75
2021/10/27 04:43:09;;;;;;;17.75;10.43;;;;;;;7.57;79.15;101285.72;1752719;81;21059;-75
2021/10/27 04:45:35;;;;;;;16.27;9.90;;;;;;;7.56;79.16;101285.39;1752979;81;21118;-75
2021/10/27 04:48:01;;;;;;;17.02;10.58;;;;;;;7.56;79.19;101284.91;1753139;81;21019;-75
2021/10/27 04:50:27;;;;;;;15.85;10.28;;;;;;;7.55;79.22;101291.17;1752726;81;21042;-75
2021/10/27 04:52:54;;;;;;;15.80;9.78;;;;;;;7.56;79.21;101292.87;1753329;81;21024;-75
2021/10/27 04:55:20;;;;;;;17.35;10.53;;;;;;;7.57;79.24;101293.68;1752814;81;21016;-75
2021/10/27 04:57:47;;;;;;;15.35;9.98;;;;;;;7.58;79.25;101295.38;1753456;81;21127;-75
2021/10/27 05:00:14;;;;;;;13.43;10.28;;;;;;;7.56;79.26;101289.37;1756247;81;21517;-75
2021/10/27 05:02:40;;;;;;;15.38;9.83;;;;;;;7.56;79.29;101290.70;1760802;81;21486;-75
2021/10/27 05:05:07;;;;;;;19.62;10.43;;;;;;;7.56;79.31;101292.87;1760880;81;21533;-75
2021/10/27 05:07:33;;;;;;;15.75;10.48;;;;;;;7.58;79.33;101294.05;1760525;81;22164;-75
2021/10/27 05:09:59;;;;;;;20.00;11.40;;;;;;;7.57;79.34;101296.34;1760803;81;21891;-75
2021/10/27 05:12:26;;;;;;;15.98;9.58;;;;;;;7.54;79.36;101291.66;1760758;81;20974;-75
2021/10/27 05:14:52;;;;;;;24.55;12.43;;;;;;;7.57;79.36;101293.68;1761013;81;20969;-75
2021/10/27 05:17:18;;;;;;;30.10;14.40;;;;;;;7.59;79.40;101289.11;1760365;81;20962;-75
2021/10/27 05:19:45;;;;;;;28.55;14.15;;;;;;;7.61;79.40;101289.80;1761034;81;21059;-76
2021/10/27 05:22:14;;;;;;;23.47;11.12;;;;;;;7.62;79.42;101298.13;1764425;80;21811;-76
2021/10/27 05:24:40;;;;;;;17.20;10.18;;;;;;;7.64;79.42;101298.36;1734776;82;21030;-75
2021/10/27 05:27:06;;;;;;;14.93;9.83;;;;;;;7.68;79.44;101302.92;1734613;82;21107;-76
2021/10/27 05:29:32;;;;;;;18.65;10.45;;;;;;;7.71;79.46;101311.95;1791894;80;21298;-76
2021/10/27 05:31:58;;;;;;;19.70;11.68;;;;;;;7.76;79.46;101313.27;1792129;80;21593;-76
2021/10/27 05:34:25;;;;;;;19.92;10.60;;;;;;;7.80;79.48;101315.17;1792009;80;21861;-76
2021/10/27 05:36:51;;;;;;;21.37;10.13;;;;;;;7.85;79.48;101316.94;1792140;80;20991;-76
2021/10/27 05:39:17;;;;;;;27.27;13.35;;;;;;;7.89;79.48;101311.73;1791693;80;21077;-76
2021/10/27 05:41:45;;;;;;;30.60;15.08;;;;;;;7.94;79.51;101306.88;1792192;80;21010;-76
2021/10/27 05:44:11;;;;;;;31.23;14.75;;;;;;;8.01;79.51;101319.99;1792122;80;21636;-76
2021/10/27 05:46:40;;;;;;;36.08;16.62;;;;;;;8.04;79.50;101322.38;1792059;80;21133;-76
2021/10/27 05:49:21;;;;;;;23.05;10.75;;;;;;;8.07;79.52;101310.16;1792205;80;21491;-76
2021/10/27 05:56:58;;;;;;;16.30;8.98;;;;;;;8.19;79.53;101315.77;1791970;80;21038;-76
2021/10/27 05:59:24;;;;;;;14.80;9.48;;;;;;;8.23;79.52;101322.98;1792233;80;21450;-76
2021/10/27 06:01:51;;;;;;;18.82;9.78;;;;;;;8.28;79.52;101322.96;1791857;79;20959;-76
2021/10/27 06:04:17;;;;;;;13.25;8.05;;;;;;;8.32;79.51;101332.36;1791930;80;21011;-76
2021/10/27 06:06:45;;;;;;;14.28;8.78;;;;;;;8.35;79.51;101326.77;1792508;80;21504;-76
2021/10/27 06:09:11;;;;;;;11.80;8.75;;;;;;;8.38;79.48;101333.14;1791846;80;21493;-76
2021/10/27 06:11:38;;;;;;;15.20;9.15;;;;;;;8.41;79.49;101348.83;1792345;80;21070;-76
2021/10/27 06:14:04;;;;;;;13.83;8.63;;;;;;;8.44;79.47;101347.22;1792167;80;21023;-76
2021/10/27 06:16:30;;;;;;;15.85;8.98;;;;;;;8.46;79.44;101345.30;1792117;80;21766;-76
2021/10/27 06:18:57;;;;;;;15.88;9.10;;;;;;;8.48;79.44;101349.13;1792219;80;21050;-76
2021/10/27 06:21:23;;;;;;;12.18;8.75;;;;;;;8.52;79.43;101345.23;1792316;80;21046;-76
2021/10/27 06:23:49;;;;;;;13.25;8.65;;;;;;;8.55;79.40;101345.48;1792372;80;21157;-76
2021/10/27 06:26:19;;;;;;;17.27;9.48;;;;;;;8.59;79.39;101340.22;1791983;80;20983;-76
2021/10/27 06:28:57;;;;;;;11.63;8.30;;;;;;;8.64;79.36;101348.66;1792405;80;21514;-76
2021/10/27 06:31:22;;;;;;;14.98;8.85;;;;;;;8.70;79.36;101348.95;1789648;80;21003;-76
2021/10/27 06:39:11;;;;;;;11.10;8.33;;;;;;;8.90;79.27;101348.55;1792035;80;21491;-76
2021/10/27 06:46:54;;;;;;;17.25;9.20;;;;;;;9.09;79.17;101334.42;1791669;80;21018;-76
2021/10/27 06:49:22;;;;;;;18.12;9.88;;;;;;;9.15;79.13;101333.38;1792148;80;21139;-76
2021/10/27 06:51:48;;;;;;;13.53;9.73;;;;;;;9.19;79.10;101330.80;1791783;80;21025;-76
2021/10/27 06:54:14;;;;;;;13.78;8.78;;;;;;;9.26;79.02;101333.26;1792228;80;21054;-77
2021/10/27 06:56:41;;;;;;;15.58;9.33;;;;;;;9.29;78.98;101333.49;1791990;80;20995;-77
2021/10/27 06:59:16;;;;;;;17.48;8.98;;;;;;;9.27;78.93;101345.59;1792275;80;21605;-76
2021/10/27 07:15:00;;;;;;;14.33;8.13;;;;;;;9.53;78.66;101348.05;1792151;80;21038;-76
2021/10/27 07:15:08;;;;;;;19.02;9.98;;;;;;;9.59;78.56;101347.16;1787405;80;21082;-76
2021/10/27 07:17:31;;;;;;;13.62;8.73;;;;;;;9.62;78.52;101350.86;1791301;80;20999;-76
2021/10/27 07:20:03;;;;;;;14.75;9.08;;;;;;;9.67;78.44;101351.30;1792213;80;21563;-76
2021/10/27 07:22:29;;;;;;;20.90;10.95;;;;;;;9.79;78.36;101352.81;1790723;80;21086;-76
2021/10/27 07:24:55;;;;;;;13.70;8.98;;;;;;;9.95;78.28;101349.09;1792297;80;21050;-76
2021/10/27 07:27:21;;;;;;;16.87;10.55;;;;;;;10.07;78.20;101348.42;1792076;80;21460;-76
2021/10/27 07:29:47;;;;;;;18.00;11.05;;;;;;;10.12;78.07;101344.36;1792120;80;20982;-76
2021/10/27 07:32:15;;;;;;;15.18;10.00;;;;;;;10.15;77.96;101352.10;1792215;80;21038;-76
2021/10/27 07:34:46;;;;;;;16.50;9.70;;;;;;;10.18;77.88;101362.47;1792140;80;21042;-77
2021/10/27 07:42:20;;;;;;;15.43;8.85;;;;;;;10.40;77.61;101363.48;1792047;80;20883;-77
2021/10/27 07:44:46;;;;;;;14.20;8.48;;;;;;;10.52;77.50;101363.63;1792113;80;21030;-77
2021/10/27 07:47:15;;;;;;;15.38;7.65;;;;;;;10.67;77.38;101359.15;1792148;80;20974;-77
2021/10/27 07:49:41;;;;;;;13.20;8.38;;;;;;;10.82;77.25;101355.02;1792394;80;21057;-77
2021/10/27 07:52:07;;;;;;;14.53;9.03;;;;;;;10.90;77.08;101353.80;1791918;80;22470;-77
2021/10/27 07:54:34;;;;;;;14.47;8.98;;;;;;;10.94;76.93;101351.17;1791815;80;20987;-77
2021/10/27 07:57:01;;;;;;;14.25;7.92;;;;;;;10.93;76.79;101356.16;1791846;80;21559;-76
2021/10/27 07:59:27;;;;;;;15.83;8.58;;;;;;;10.92;76.62;101354.47;1792321;80;21077;-76
2021/10/27 08:01:54;;;;;;;16.93;10.30;;;;;;;11.00;76.51;101358.58;1781632;79;20999;-76
2021/10/27 08:04:22;;;;;;;14.30;8.35;;;;;;;11.03;76.37;101359.61;1777684;80;21191;-76
2021/10/27 08:06:48;;;;;;;13.58;8.30;;;;;;;11.07;76.26;101360.15;1778092;80;20979;-76
2021/10/27 08:09:15;;;;;;;11.40;7.85;;;;;;;11.12;76.18;101364.04;1778110;80;20999;-76
2021/10/27 08:11:41;;;;;;;14.78;7.42;;;;;;;11.16;76.05;101364.09;1777986;80;21055;-77
2021/10/27 08:14:08;;;;;;;15.03;8.85;;;;;;;11.16;75.91;101361.91;1777857;80;21014;-76
2021/10/27 08:16:34;;;;;;;14.07;7.60;;;;;;;11.17;75.83;101366.27;1778080;80;21131;-77
2021/10/27 08:19:00;;;;;;;15.35;7.60;;;;;;;11.19;75.72;101367.79;1777821;80;21554;-76
2021/10/27 08:21:26;;;;;;;17.02;6.65;;;;;;;11.16;75.61;101370.77;1777778;80;21027;-76
2021/10/27 08:23:54;;;;;;;15.10;5.67;;;;;;;11.16;75.45;101376.10;1777310;80;21051;-77
2021/10/27 08:26:23;;;;;;;11.45;6.47;;;;;;;11.17;75.40;101377.79;1777585;80;21561;-76
2021/10/27 08:28:55;;;;;;;10.15;6.33;;;;;;;11.22;75.34;101378.20;1778202;80;21139;-77
2021/10/27 08:34:34;;;;;;;14.95;7.33;;;;;;;11.24;75.15;101384.22;1777986;80;21507;-77
2021/10/27 08:36:18;;;;;;;20.02;9.68;;;;;;;11.24;75.02;101384.22;1761913;80;21011;-77
2021/10/27 08:38:44;;;;;;;29.87;13.60;;;;;;;11.20;74.93;101382.83;1777862;80;21571;-77
2021/10/27 08:41:10;;;;;;;25.77;12.50;;;;;;;11.27;74.88;101377.72;1777972;80;22108;-77
2021/10/27 08:43:36;;;;;;;18.95;10.55;;;;;;;11.34;74.83;101368.96;1726866;80;20996;-77
2021/10/27 08:46:02;;;;;;;17.80;9.40;;;;;;;11.41;74.75;101378.54;1786497;80;20986;-77
2021/10/27 08:48:30;;;;;;;18.52;10.25;;;;;;;11.48;74.65;101374.27;1786283;80;20983;-77
2021/10/27 08:50:56;;;;;;;15.53;9.03;;;;;;;11.53;74.58;101370.17;1786482;80;20979;-77
2021/10/27 08:53:24;;;;;;;22.15;11.12;;;;;;;11.59;74.48;101365.20;1786392;80;21205;-77
2021/10/27 08:55:51;;;;;;;12.25;8.03;;;;;;;11.66;74.41;101362.25;1785984;80;21050;-77
2021/10/27 08:58:23;;;;;;;13.95;6.80;;;;;;;11.73;74.32;101358.01;1786549;80;21002;-77
2021/10/27 09:01:02;;;;;;;18.65;9.30;;;;;;;11.76;74.18;101363.04;1785610;79;21018;-77
2021/10/27 09:03:36;;;;;;;29.37;15.13;;;;;;;11.79;74.11;101362.73;1784450;80;20998;-77
2021/10/27 09:06:02;;;;;;;18.90;9.75;;;;;;;11.85;74.04;101365.66;1786610;80;21073;-77
2021/10/27 09:35:16;;;;;;;12.85;8.05;;;;;;;12.37;73.07;101381.73;1786250;80;21098;-77
2021/10/27 09:39:51;;;;;;;12.10;7.50;;;;;;;12.43;72.80;101380.60;1773590;80;21062;-77
2021/10/27 09:56:16;;;;;;;10.38;5.15;;;;;;;12.95;72.35;101392.56;1729140;82;21107;-77
2021/10/27 10:06:41;;;;;;;14.55;6.80;;;;;;;13.16;71.89;101393.02;1770328;79;21011;-77
2021/10/27 10:09:08;;;;;;;12.25;6.15;;;;;;;13.24;71.74;101391.72;1765352;79;21107;-77
2021/10/27 10:11:34;;;;;;;16.05;8.53;;;;;;;13.35;71.59;101398.11;1794145;78;21055;-77
2021/10/27 10:14:05;;;;;;;15.98;7.40;;;;;;;13.48;71.46;101398.47;1801109;78;21641;-77
2021/10/27 10:16:52;;;;;;;15.13;7.42;;;;;;;13.55;71.25;101390.61;1799689;78;21471;-77
2021/10/27 10:19:22;;;;;;;15.97;5.93;;;;;;;13.60;71.08;101393.65;1802078;78;21574;-77
2021/10/27 10:21:49;;;;;;;11.03;6.62;;;;;;;13.69;71.01;101392.64;1817896;78;21108;-77
2021/10/27 10:24:24;;;;;;;15.80;8.63;;;;;;;13.83;70.90;101401.87;1810370;78;21030;-77
2021/10/27 10:26:52;;;;;;;9.30;5.62;;;;;;;13.85;70.78;101390.49;1813205;78;21120;-77
2021/10/27 10:29:42;;;;;;;9.65;5.67;;;;;;;13.88;70.69;101397.70;1792817;78;21010;-77
2021/10/27 10:32:30;;;;;;;12.35;7.00;;;;;;;13.87;70.58;101391.99;1747517;80;21106;-77
2021/10/27 10:35:03;;;;;;;9.48;6.15;;;;;;;13.80;70.44;101396.84;1797947;78;21646;-77
2021/10/27 10:37:49;;;;;;;14.07;7.33;;;;;;;13.73;70.34;101398.51;1793532;78;21012;-77
2021/10/27 10:40:52;;;;;;;13.28;8.53;;;;;;;13.70;70.23;101397.50;1796831;78;21597;-78
2021/10/27 10:43:23;;;;;;;10.90;7.17;;;;;;;13.62;70.09;101391.62;1787046;78;21062;-77
2021/10/27 11:22:17;;;;;;;13.83;8.85;;;;;;;14.55;69.13;101386.77;1769189;78;21466;-77
2021/10/27 11:23:18;;;;;;;11.35;7.75;;;;;;;14.55;68.51;101359.92;1786420;78;21915;-77
2021/10/27 11:39:47;;;;;;;6.87;4.10;;;;;;;14.59;67.75;101345.15;1788596;78;21054;-77
2021/10/27 11:42:25;;;;;;;6.67;3.85;;;;;;;14.65;67.74;101368.61;1745247;80;21510;-77
2021/10/27 11:44:51;;;;;;;9.93;4.33;;;;;;;14.60;67.74;101372.34;1801025;78;21326;-77
2021/10/27 11:47:36;;;;;;;12.50;5.08;;;;;;;14.54;67.73;101355.05;1731867;81;21767;-78
2021/10/27 11:50:06;;;;;;;9.40;4.42;;;;;;;14.65;67.52;101368.61;1746429;79;21164;-77
2021/10/27 11:52:39;;;;;;;9.95;4.37;;;;;;;14.65;67.52;101368.61;1740554;81;21099;-77
2021/10/27 11:55:07;;;;;;;9.15;4.53;;;;;;;14.61;67.42;101361.91;1769023;78;21005;-77
2021/10/27 11:57:38;;;;;;;11.20;5.53;;;;;;;14.64;67.11;101361.56;1750450;79;21398;-77
2021/10/27 12:00:07;;;;;;;9.08;4.83;;;;;;;14.64;67.11;101361.56;1774833;79;21030;-77
2021/10/27 12:02:57;;;;;;;8.00;6.08;;;;;;;14.66;67.29;101358.22;1771626;79;21215;-76
2021/10/27 12:05:27;;;;;;;9.23;4.70;;;;;;;14.62;66.94;101335.41;1774281;79;21069;-77
2021/10/27 12:08:16;;;;;;;8.13;4.47;;;;;;;14.62;66.94;101335.41;1779184;78;21569;-77
2021/10/27 12:10:43;;;;;;;7.50;5.40;;;;;;;14.74;67.12;101348.27;1768959;78;21508;-78
2021/10/27 12:13:04;;;;;;;13.83;6.15;;;;;;;14.72;67.09;101330.66;1779025;78;21010;-78
2021/10/27 12:15:57;;;;;;;8.50;4.10;;;;;;;14.72;66.98;101327.48;1715404;81;21759;-78
2021/10/27 12:18:13;;;;;;;7.53;4.67;;;;;;;14.72;66.98;101327.48;1729225;81;21065;-78
2021/10/27 12:20:46;;;;;;;10.82;5.83;;;;;;;14.83;66.97;101339.69;1764402;79;21056;-77
2021/10/27 12:23:20;;;;;;;18.00;9.35;;;;;;;14.85;66.94;101338.48;1737929;81;21621;-78
2021/10/27 12:25:47;;;;;;;18.27;9.10;;;;;;;14.79;66.76;101318.22;1755727;79;21027;-78
2021/10/27 12:28:30;;;;;;;17.65;8.20;;;;;;;14.92;66.84;101338.63;1799552;78;21054;-77
2021/10/27 12:30:57;;;;;;;19.82;9.95;;;;;;;14.92;66.81;101330.56;1788906;78;21077;-78
2021/10/27 12:33:40;;;;;;;24.25;10.75;;;;;;;14.90;66.75;101328.08;1778821;78;21081;-78
2021/10/27 12:36:30;;;;;;;15.28;8.38;;;;;;;14.92;66.62;101330.06;1787499;78;21628;-78
2021/10/27 12:39:11;;;;;;;13.32;6.92;;;;;;;14.92;66.62;101330.06;1774661;78;21053;-78
2021/10/27 12:41:37;;;;;;;16.50;7.58;;;;;;;14.97;66.49;101334.42;1775828;78;23407;-77
2021/10/27 12:44:24;;;;;;;7.83;3.67;;;;;;;14.95;66.50;101331.05;1782819;78;21642;-77
2021/10/27 12:47:29;;;;;;;5.75;3.25;;;;;;;14.80;66.33;101340.88;1776736;78;21122;-77
2021/10/27 12:50:18;;;;;;;20.05;8.93;;;;;;;14.80;66.33;101340.88;1785158;78;21552;-77
2021/10/27 12:52:53;;;;;;;21.90;10.28;;;;;;;14.75;66.40;101343.23;1760095;79;21118;-77
2021/10/27 12:55:39;;;;;;;11.22;4.78;;;;;;;14.74;66.42;101352.30;1768288;79;21510;-77
2021/10/27 12:58:14;;;;;;;11.08;6.67;;;;;;;14.72;66.45;101358.36;1764793;79;21063;-78
2021/10/27 13:30:14;;;;;;;4.05;2.27;;;;;;;14.52;66.71;101362.95;1795190;80;20991;-77
2021/10/27 13:32:52;;;;;;;8.55;3.70;;;;;;;14.48;66.76;101361.96;1795161;80;20986;-77
2021/10/27 13:35:18;;;;;;;;;;;;;;;14.45;66.75;101366.33;1798175;80;21231;-77
2021/10/27 13:37:44;;;;;;;7.87;3.30;;;;;;;14.39;66.75;101368.87;1795250;80;20463;-77
2021/10/27 13:40:12;;;;;;;7.08;3.27;;;;;;;14.34;66.76;101366.69;1795722;80;21546;-78
2021/10/27 13:42:49;;;;;;;9.38;3.70;;;;;;;14.31;66.76;101366.16;1794516;80;21037;-77
2021/10/27 13:45:20;;;;;;;9.43;4.45;;;;;;;14.26;66.80;101366.66;1794880;80;21082;-77
2021/10/27 13:48:01;;;;;;;7.25;4.12;;;;;;;14.27;66.87;101364.31;1794314;80;21183;-77
2021/10/27 14:07:00;;;;;;;15.10;4.97;;;;;;;14.05;67.11;101345.39;1740543;82;21081;-77
2021/10/27 14:14:54;;;;;;;12.30;4.50;;;;;;;14.03;67.27;101348.76;1740829;82;21092;-77
2021/10/27 15:19:52;;;;;;;13.13;6.12;;;;;;;13.29;68.73;101319.75;1740953;82;21049;-77
2021/10/27 15:27:46;;;;;;;14.93;8.13;;;;;;;13.22;68.95;101335.30;1795769;80;28597;-77
2021/10/27 15:32:37;;;;;;;22.73;9.28;;;;;;;13.18;69.10;101345.50;1795584;80;20974;-77
2021/10/27 15:40:34;;;;;;;9.93;4.75;;;;;;;13.11;69.24;101355.69;1740660;82;21061;-77
2021/10/27 15:43:12;;;;;;;23.57;9.70;;;;;;;13.08;69.32;101361.34;1793278;80;21327;-77
2021/10/27 15:51:02;;;;;;;6.40;3.92;;;;;;;13.05;69.48;101369.20;1732767;82;21483;-77